LiveATC.Net - Listen to live air traffic control over the Internet! Contact LiveATC.net for advertising information

Find LiveATC Audio Streams


Airport/ARTCC Code

Frequency
(e.g., 124.400, 128.75)
Site-wide search

Browse LiveATC Feeds
LiveATC Coverage Map
Top 50 LiveATC Feeds
Bad Weather Areas

LiveATC FAQ
Offer a LiveATC Feed
Contact LiveATC.net
Press Inquiries

LiveATC on iPhone
LiveATC on Android

LiveATC Mobile
(Mobile browser)

ATC Audio Archives
Interesting Recordings

LiveATC Forums

Home Page
About LiveATC.net
Make a Donation
LiveATC Bookstore

Terms of Use
Privacy Policy

ATC/Radar Sites
U.S. ARTCC Freqs
Canadian Air Freqs

AIRMETs/SIGMETs

FAA Airport Status
Nat'l Airspace Status
Arrival Demand Charts


Server Software By:
Icecast.org
Liquidsoap


Current Potentially Bad Weather Airports
(updated every 30 minutes - sorted alphabetically by ICAO code)



This page lists LiveATC.net airport areas that may be interesting to listen to because of challenging flying (weather) conditions. Challenging weather conditions include low ceilings, limited visibility, high or gusty winds, or thunderstorms. This is an evolving new feature and comments are welcome.

Updated: Fri Jul 3 20:10:01 UTC 2015
Click on airport name to go to that airport area's feeds.

CYQT Ground/Tower
cyqtCYQT 031938Z 32004KT 10SM BKN042CB BKN100 BKN210 24/18 A2978 RMK CB5AC1CI1 OCNL -SHRA DIST LTGCG E-SE SLP087 DENSITY ALT 1900FT
ENKB Twr/App
WX MAP UNAVAILABLEENKB 031950Z AUTO 25011KT 9000NDV OVC002/// 12/11 Q1026
ENZV Tower
WX MAP UNAVAILABLEENZV 031950Z 32008KT 8000 OVC006 15/14 Q1025
KASE Del/Gnd/Twr/ZDV
kaseKASE 031953Z VRB05G16KT 10SM SCT080 28/06 A3025 RMK AO2 LTG DSNT S SLP103 T02780056
KBCT Gnd/Twr
kbctKBCT 031847Z 09007KT 10SM VCTS FEW025 32/25 A3007 RMK LTG DSNT ALQDS
KDTO Gnd/Twr
kdtoKDTO 031953Z 25010KT 10SM SCT055 BKN080 32/21 A2993 RMK AO2 LTG DSNT NW SLP126 T03220211
KDWH Del/ Gnd/Twr/App
kdwhKDWH 031953Z 19006KT 10SM BKN041 32/22 A2997 RMK AO2 LTG DSNT E AND SE SLP146 T03220222
KEVV Twr/ZID
kevvKEVV 031954Z 32009KT 5SM HZ SCT024 BKN040 28/22 A2985 RMK AO2 LTG DSNT NE RAE04 SLP105 P0000 T02780217
KFHU Gnd/Twr/Radar
kfhuKFHU 031958Z AUTO 35009KT 10SM FEW340 30/12 A3011 RMK AO2 LTG DSNT NE SLP111 T02950123
KGJT Gnd/Twr/App/ZDV
kgjtKGJT 031953Z VRB05KT 10SM CLR 33/10 A3001 RMK AO2 LTG DSNT N AND S SLP078 T03280100
KGNV Ground/Tower
kgnvKGNV 031953Z 23005KT 10SM CLR 34/19 A3004 RMK AO2 LTG DSNT SE-SW SLP169 T03390189
KGYI Ground/Tower
kgyiKGYI 031955Z AUTO 21010G14KT 10SM CLR 30/25 A2996 RMK AO2 LTG DSNT W T02970247
KIAH Tower
kiahKIAH 031953Z 18012G19KT 7SM TS BKN044CB OVC250 34/23 A2998 RMK AO2 TSB53 SLP150 FRQ LTGICCG TS VC E-SE MOV N VCSH E-SE T03390228
KILM Gnd/Twr/App
kilmKILM 031953Z VRB03KT 10SM VCTS SCT015 BKN023 OVC038 26/23 A2993 RMK AO2 LTG DSNT NE AND E AND W RAB14E40 TSB07E42 SLP135 P0009 T02560228
KLEX Del/Gnd/Twr/App
klexKLEX 031954Z 25006KT 4SM -TSRA BR FEW065 FEW100 BKN110 22/21 A2986 RMK AO2 LTG DSNT SW-NW TSB09E50B54 SLP104 P0008 T02220211 $
KLOU Del/Gnd/Twr
klouKLOU 031953Z AUTO 31013KT 1 1/4SM +TSRA BR SCT016 BKN032 OVC080 23/22 A2986 RMK AO2 LTG DSNT E AND SW TSB05E20B23E38B52 SLP105 P0014 T02280217
KMCO Tower/App
kmcoKMCO 031953Z 29008KT 10SM TS SCT050CB SCT080 BKN250 33/21 A3005 RMK AO2 TSB40 SLP174 OCNL LTGICCG NW TS NW STNRY CB DSNT E MOV W T03330211
KMCO App (Disney/Ovido Satellite)
kmcoKORL 031953Z AUTO 10003KT 10SM FEW043 BKN100 33/21 A3005 RMK AO2 LTG DSNT E AND SE RAB36E48 SLP177 P0000 T03280206
KMLB Twr/App
kmlbKMLB 031953Z 12012KT 10SM SCT032 31/23 A3006 RMK AO2 LTG DSNT S AND NW SLP178 T03060228
KOPF ATIS
kopfKOPF 031953Z 09009KT 10SM FEW035 32/23 A3006 RMK AO2 LTG DSNT W AND NW SLP181 T03220228
KPGV CTAF
kpgvKPGV 031935Z AUTO 22008KT 7SM VCTS SCT029 BKN036 28/22 A2995 RMK AO2 LTG DSNT S
KPIE Del/Gnd/Twr
kpieKPIE 031953Z 30006KT 10SM CLR 33/23 A3006 RMK AO2 LTG DSNT NE-SE SLP179 T03280233
KPNE Gnd/Twr/App
kpneKPNE 031954Z VRB04KT 10SM FEW070 27/14 A2998 RMK AO2 SLP149 T02720139 RVRNO $
KRNO Del/Gnd/Twr/App/ZOA
krnoKRNO 031955Z VRB03KT 10SM TS FEW080 SCT100CB SCT140 BKN220 32/11 A3005 RMK AO2 RAB27E45 TSB48 SLP112 OCNL LTGIC W-NW TS W-NW MOV NW TCU DSNT ALQDS P0001 T03220111
KRSW Twr/App/Dep
krswKRSW 031953Z VRB04KT 10SM CLR 34/18 A3003 RMK AO2 LTG DSNT E SLP165 T03440183
KSAF Gnd/Tower
ksafKSAF 031953Z VRB04KT 10SM FEW050 27/11 A3021 RMK AO2 LTG DSNT NW SLP126 T02720111
KSDF Approach
ksdfKSDF 031956Z 35007KT 4SM -TSRA BR FEW012 BKN050CB BKN080 22/21 A2985 RMK AO2 SLP102 FRQ LTGCGIC N TS N MOV E P0020 T02220206
KSGR Tower/CTAF
ksgrKSGR 031953Z 17012KT 10SM SCT041 33/23 A2998 RMK AO2 LTG DSNT NE SLP151 T03330233
KSPG Ground/Tower
kspgKSPG 031953Z 00000KT 10SM CLR 34/21 A3004 RMK AO2 LTG DSNT NE-SE SLP171 T03440206
KTMB Del/Gnd/Twr
ktmbKTMB 031953Z 11011KT 10SM FEW036 33/23 A3005 RMK AO2 LTG DSNT SW-N SLP175 T03280233
KTPA Gnd/Twr/App
ktpaKTPA 031953Z 27006KT 10SM TS FEW038CB BKN220 31/22 A3007 RMK AO2 TSB17 SLP183 FRQ LTGCG VC N-E TS VC N-E MOV LTL CB DSNT E-S TCU N AND E-S VCSH N-E T03110217
KVRB App/ZMA
kvrbKVRB 031955Z 11012KT 10SM VCTS CLR 32/23 A3007 RMK AO2 LTG DSNT SW AND W T03220228
MMGL Twr/App
WX MAP UNAVAILABLEMMGL 031943Z 22011KT 1SM TS +RA FEW010 BKN015CB OVC080 19/13 A3014 RMK 8/96/ TSRAB37
SBEG Gnd/Twr/App
WX MAP UNAVAILABLESBEG 032000Z 13007KT 9999 -TSRA SCT013 FEW020CB 27/24 Q1010
SCJO Gnd/Twr
WX MAP UNAVAILABLESCJO 031900Z VRB01KT 9999 OVC008 05/05 Q1022
SULS Tower
WX MAP UNAVAILABLESULS 031900Z 20024G34KT 3000 RA BKN010 OVC060 10/07 Q1012
URKK Gnd/Twr/App
WX MAP UNAVAILABLEURKK 031930Z 06003MPS 9999 BKN033 OVC130 21/19 Q1019 R05C/CLRD70 TEMPO -TSRA SCT007 BKN020CB RMK QFE761
URSS Gnd/Twr/App
WX MAP UNAVAILABLEURSS 031930Z 06002MPS 9999 OVC046CB 20/18 Q1019 R02/090070 R06/090070 NOSIG RMK R06/06004MPS QFE762
WMKB Radar
WX MAP UNAVAILABLEWMKB 031900Z 20003KT 6000 -RA FEW008 SCT140 BKN260 26/24 Q1010 RETSRA TEMPO 6000 RA
WMKP Tower
WX MAP UNAVAILABLEWMKP 031930Z 19001KT 7000 FEW010 SCT140 BKN250 25/24 Q1011 RETSRA NOSIG
WMSA/WMKK Twr/App/Radar
WX MAP UNAVAILABLEWMSA 031900Z 24005KT 190V300 6000 -TSRA FEW006 FEW017CB SCT026 OVC260 24/22 Q1011
YPJT Gnd/Twr/Radar
WX MAP UNAVAILABLEYPJT 032000Z AUTO 03005KT //// // OVC001 12/12 Q1022